createdAt,value
2022-12-07T00:01:36.897Z,4.70
2022-12-07T00:04:06.316Z,4.80
2022-12-07T00:06:53.403Z,4.70
2022-12-07T00:09:21.001Z,4.70
2022-12-07T00:11:51.752Z,4.70
2022-12-07T00:14:19.821Z,4.80
2022-12-07T00:16:50.990Z,4.90
2022-12-07T00:19:19.172Z,4.90
2022-12-07T00:21:46.686Z,4.90
2022-12-07T00:24:14.214Z,5.10
2022-12-07T00:26:43.165Z,5.00
2022-12-07T00:29:22.641Z,4.90
2022-12-07T00:31:50.225Z,4.90
2022-12-07T00:34:22.319Z,5.00
2022-12-07T00:36:50.173Z,5.00
2022-12-07T00:39:18.082Z,5.00
2022-12-07T00:41:45.541Z,5.10
2022-12-07T00:44:12.953Z,5.00
2022-12-07T00:46:40.365Z,4.80
2022-12-07T00:49:07.883Z,4.80
2022-12-07T00:51:35.296Z,4.80
2022-12-07T00:54:02.804Z,4.80
2022-12-07T00:56:30.736Z,4.90
2022-12-07T00:59:02.870Z,4.80
2022-12-07T01:01:31.626Z,4.90
2022-12-07T01:03:59.460Z,4.60
2022-12-07T01:06:26.885Z,4.60
2022-12-07T01:08:55.281Z,4.60
2022-12-07T01:11:26.314Z,4.50
2022-12-07T01:13:56.029Z,4.60
2022-12-07T01:16:25.814Z,4.40
2022-12-07T01:18:55.253Z,4.40
2022-12-07T01:21:27.545Z,4.30
2022-12-07T01:23:55.408Z,4.30
2022-12-07T01:26:24.750Z,4.10
2022-12-07T01:28:53.849Z,4.20
2022-12-07T01:31:25.905Z,4.20
2022-12-07T01:33:56.952Z,4.00
2022-12-07T01:36:31.423Z,4.00
2022-12-07T01:39:01.622Z,4.20
2022-12-07T01:41:32.655Z,4.10
2022-12-07T01:44:55.633Z,4.10
2022-12-07T01:47:23.074Z,4.00
2022-12-07T01:49:50.802Z,3.90
2022-12-07T01:52:31.794Z,3.90
2022-12-07T01:55:04.710Z,3.80
2022-12-07T01:57:35.651Z,4.00
2022-12-07T02:00:04.575Z,4.10
2022-12-07T02:02:57.448Z,4.00
2022-12-07T02:05:26.637Z,4.00
2022-12-07T02:07:56.629Z,4.00
2022-12-07T02:10:29.458Z,4.00
2022-12-07T02:13:06.592Z,4.00
2022-12-07T02:16:10.049Z,4.20
2022-12-07T02:18:50.930Z,4.20
2022-12-07T02:21:33.457Z,4.10
2022-12-07T02:24:16.044Z,4.00
2022-12-07T02:27:13.682Z,4.10
2022-12-07T02:29:45.411Z,3.90
2022-12-07T02:32:24.484Z,3.80
2022-12-07T02:34:59.607Z,3.80
2022-12-07T02:37:36.897Z,3.90
2022-12-07T02:40:41.591Z,4.00
2022-12-07T02:43:22.928Z,4.00
2022-12-07T02:45:53.913Z,3.90
2022-12-07T02:48:22.825Z,3.90
2022-12-07T02:50:52.194Z,4.00
2022-12-07T02:53:39.491Z,4.10
2022-12-07T03:03:12.830Z,4.20
2022-12-07T03:05:49.294Z,4.30
2022-12-07T03:08:38.852Z,4.30
2022-12-07T03:11:11.547Z,4.30
2022-12-07T03:14:14.330Z,4.30
2022-12-07T03:16:49.219Z,4.40
2022-12-07T03:19:20.983Z,4.30
2022-12-07T03:21:54.582Z,4.30
2022-12-07T03:24:25.862Z,4.30
2022-12-07T03:27:02.541Z,4.30
2022-12-07T03:29:52.280Z,4.30
2022-12-07T03:33:18.000Z,4.30
2022-12-07T03:36:01.183Z,4.10
2022-12-07T03:38:57.934Z,4.00
2022-12-07T03:41:29.481Z,4.20
2022-12-07T03:43:58.393Z,4.10
2022-12-07T03:46:25.888Z,4.00
2022-12-07T03:49:11.879Z,4.10
2022-12-07T03:52:12.583Z,4.10
2022-12-07T03:54:55.992Z,4.00
2022-12-07T03:57:25.025Z,4.00
2022-12-07T03:59:54.671Z,3.80
2022-12-07T04:02:23.296Z,4.00
2022-12-07T04:04:50.873Z,3.80
2022-12-07T04:07:18.455Z,4.00
2022-12-07T04:09:46.497Z,4.10
2022-12-07T04:12:14.037Z,4.00
2022-12-07T04:14:41.623Z,3.90
2022-12-07T04:17:10.082Z,4.00
2022-12-07T04:19:37.502Z,4.00
2022-12-07T04:22:06.062Z,3.90
2022-12-07T04:24:34.428Z,4.00
2022-12-07T04:27:02.084Z,4.10
2022-12-07T04:29:29.580Z,3.90
2022-12-07T04:31:57.040Z,4.00
2022-12-07T04:34:24.684Z,4.00
2022-12-07T04:36:52.317Z,3.90
2022-12-07T04:39:22.090Z,3.90
2022-12-07T04:41:50.178Z,4.00
2022-12-07T04:44:18.860Z,4.10
2022-12-07T04:46:46.644Z,4.00
2022-12-07T04:49:14.835Z,4.10
2022-12-07T04:51:43.009Z,4.00
2022-12-07T04:54:10.464Z,3.90
2022-12-07T04:56:38.053Z,3.90
2022-12-07T04:59:05.552Z,3.90
2022-12-07T05:01:33.475Z,4.00
2022-12-07T05:04:01.167Z,3.90
2022-12-07T05:06:28.784Z,4.00
2022-12-07T05:08:56.418Z,3.90
2022-12-07T05:11:39.039Z,3.90
2022-12-07T05:14:14.189Z,4.00
2022-12-07T05:16:42.699Z,3.80
2022-12-07T05:19:11.099Z,3.80
2022-12-07T05:21:39.532Z,3.80
2022-12-07T05:24:08.397Z,3.90
2022-12-07T05:26:35.836Z,3.90
2022-12-07T05:29:03.748Z,3.80
2022-12-07T05:31:31.280Z,3.80
2022-12-07T05:33:58.803Z,3.60
2022-12-07T05:36:26.341Z,3.60
2022-12-07T05:38:53.842Z,3.60
2022-12-07T05:41:39.572Z,3.60
2022-12-07T05:44:07.470Z,3.50
2022-12-07T05:46:35.303Z,3.60
2022-12-07T05:49:03.022Z,3.60
2022-12-07T05:51:30.747Z,3.60
2022-12-07T05:53:58.239Z,3.70
2022-12-07T05:56:26.048Z,3.60
2022-12-07T05:59:11.903Z,3.60
2022-12-07T06:01:39.458Z,3.50
2022-12-07T06:04:07.147Z,3.50
2022-12-07T06:06:34.750Z,3.50
2022-12-07T06:09:02.301Z,3.60
2022-12-07T06:11:48.072Z,3.50
2022-12-07T06:14:15.594Z,3.60
2022-12-07T06:16:43.047Z,3.60
2022-12-07T06:19:10.753Z,3.40
2022-12-07T06:21:38.563Z,3.50
2022-12-07T06:24:06.585Z,3.40
2022-12-07T06:26:34.226Z,3.40
2022-12-07T06:29:01.979Z,3.40
2022-12-07T06:31:29.509Z,3.50
2022-12-07T06:34:01.462Z,3.60
2022-12-07T06:36:29.607Z,3.50
2022-12-07T06:38:57.728Z,3.40
2022-12-07T06:41:25.620Z,3.40
2022-12-07T06:43:56.269Z,3.30
2022-12-07T06:46:24.611Z,3.30
2022-12-07T06:48:52.063Z,3.20
2022-12-07T06:51:19.938Z,3.20
2022-12-07T06:53:47.462Z,3.20
2022-12-07T06:56:15.528Z,3.30
2022-12-07T06:58:43.331Z,3.40
2022-12-07T07:01:16.542Z,3.50
2022-12-07T07:03:45.345Z,3.50
2022-12-07T07:06:13.780Z,3.40
2022-12-07T07:08:41.486Z,3.50
2022-12-07T07:11:09.782Z,3.40
2022-12-07T07:13:37.650Z,3.40
2022-12-07T07:16:05.679Z,3.50
2022-12-07T07:18:33.254Z,3.60
2022-12-07T07:21:00.869Z,3.40
2022-12-07T07:23:28.436Z,3.50
2022-12-07T07:25:56.034Z,3.50
2022-12-07T07:28:23.709Z,3.50
2022-12-07T07:30:51.357Z,3.30
2022-12-07T07:33:19.008Z,3.30
2022-12-07T07:35:46.508Z,3.20
2022-12-07T07:38:14.013Z,3.40
2022-12-07T07:40:41.533Z,3.30
2022-12-07T07:43:10.190Z,3.30
2022-12-07T07:45:37.683Z,3.40
2022-12-07T07:48:05.407Z,3.30
2022-12-07T07:50:32.859Z,3.20
2022-12-07T07:53:00.374Z,3.30
2022-12-07T07:55:27.909Z,3.20
2022-12-07T07:57:55.476Z,3.40
2022-12-07T08:00:23.530Z,3.30
2022-12-07T08:02:51.176Z,3.40
2022-12-07T08:05:18.808Z,3.30
2022-12-07T08:07:46.728Z,3.30
2022-12-07T08:10:15.124Z,3.40
2022-12-07T08:13:02.518Z,3.20
2022-12-07T08:15:31.835Z,3.30
2022-12-07T08:18:00.119Z,3.30
2022-12-07T08:20:27.972Z,3.40
2022-12-07T08:22:55.545Z,3.50
2022-12-07T08:25:25.583Z,3.60
2022-12-07T08:27:53.694Z,3.60
2022-12-07T08:30:22.168Z,3.80
2022-12-07T08:32:49.803Z,3.80
2022-12-07T08:35:17.501Z,3.80
2022-12-07T08:37:45.004Z,4.10
2022-12-07T08:40:17.086Z,4.00
2022-12-07T08:42:45.778Z,4.30
2022-12-07T08:45:16.087Z,4.10
2022-12-07T08:47:48.310Z,4.20
2022-12-07T08:50:16.101Z,4.30
2022-12-07T08:52:44.542Z,4.00
2022-12-07T08:55:13.246Z,4.00
2022-12-07T08:57:41.614Z,3.90
2022-12-07T09:00:10.166Z,4.20
2022-12-07T09:02:37.666Z,4.20
2022-12-07T09:05:05.548Z,4.30
2022-12-07T09:07:35.901Z,4.40
2022-12-07T09:10:03.783Z,4.50
2022-12-07T09:12:31.370Z,4.60
2022-12-07T09:14:58.903Z,4.60
2022-12-07T09:17:26.381Z,4.60
2022-12-07T09:19:53.897Z,4.50
2022-12-07T09:22:21.308Z,4.50
2022-12-07T09:24:48.786Z,4.60
2022-12-07T09:27:18.554Z,4.50
2022-12-07T09:29:46.094Z,4.70
2022-12-07T09:32:14.100Z,4.80
2022-12-07T09:34:41.810Z,4.90
2022-12-07T09:37:09.664Z,4.90
2022-12-07T09:39:42.281Z,4.70
2022-12-07T09:42:34.881Z,4.60
2022-12-07T09:45:05.585Z,4.60
2022-12-07T09:47:35.200Z,4.50
2022-12-07T09:50:13.077Z,4.50
2022-12-07T09:52:42.355Z,4.60
2022-12-07T09:55:16.656Z,4.70
2022-12-07T09:57:44.745Z,4.90
2022-12-07T10:00:16.104Z,4.90
2022-12-07T10:02:47.816Z,5.10
2022-12-07T10:05:24.488Z,5.10
2022-12-07T10:07:52.406Z,5.20
2022-12-07T10:10:35.279Z,5.30
2022-12-07T10:13:19.672Z,5.40
2022-12-07T10:16:03.415Z,5.40
2022-12-07T10:18:38.296Z,5.50
2022-12-07T10:21:17.403Z,5.60
2022-12-07T10:24:03.887Z,5.80
2022-12-07T10:26:49.353Z,5.80
2022-12-07T10:29:34.403Z,5.90
2022-12-07T10:32:23.390Z,5.90
2022-12-07T10:34:52.484Z,6.00
2022-12-07T10:37:21.394Z,6.00
2022-12-07T10:39:50.822Z,6.10
2022-12-07T10:42:29.264Z,6.30
2022-12-07T10:45:25.534Z,6.30
2022-12-07T10:48:18.179Z,6.30
2022-12-07T10:50:55.948Z,6.40
2022-12-07T10:53:38.414Z,6.40
2022-12-07T10:56:17.878Z,6.40
2022-12-07T10:58:54.507Z,6.40
2022-12-07T11:01:43.588Z,6.40
2022-12-07T11:04:24.077Z,6.40
2022-12-07T11:07:18.562Z,6.40
2022-12-07T11:10:12.731Z,6.00
2022-12-07T11:13:01.361Z,5.70
2022-12-07T11:15:56.567Z,5.70
2022-12-07T11:18:27.768Z,5.90
2022-12-07T11:21:09.637Z,5.90
2022-12-07T11:23:58.952Z,6.10
2022-12-07T11:26:48.327Z,6.10
2022-12-07T11:29:15.855Z,6.00
2022-12-07T11:32:12.935Z,6.00
2022-12-07T11:34:58.125Z,6.00
2022-12-07T11:37:36.412Z,6.10
2022-12-07T11:40:42.804Z,6.20
2022-12-07T11:43:25.252Z,6.10
2022-12-07T11:46:11.154Z,6.30
2022-12-07T11:48:53.106Z,6.30
2022-12-07T11:51:23.572Z,6.40
2022-12-07T11:53:58.121Z,6.30
2022-12-07T11:56:28.920Z,6.30
2022-12-07T11:59:05.335Z,6.10
2022-12-07T12:01:35.412Z,6.30
2022-12-07T12:04:10.565Z,6.30
2022-12-07T12:06:46.309Z,6.50
2022-12-07T12:09:52.065Z,6.60
2022-12-07T12:15:54.848Z,6.50
2022-12-07T12:18:30.549Z,6.60
2022-12-07T12:21:20.117Z,6.60
2022-12-07T12:23:55.584Z,6.70
2022-12-07T12:26:26.467Z,6.70
2022-12-07T12:29:00.698Z,6.80
2022-12-07T12:31:28.759Z,6.80
2022-12-07T12:33:58.413Z,6.90
2022-12-07T12:36:26.705Z,7.10
2022-12-07T12:39:00.198Z,7.20
2022-12-07T12:41:36.977Z,7.10
2022-12-07T12:44:24.375Z,7.20
2022-12-07T12:47:01.536Z,7.30
2022-12-07T12:50:16.340Z,7.30
2022-12-07T12:52:48.771Z,7.20
2022-12-07T12:55:22.066Z,7.30
2022-12-07T12:58:18.330Z,7.40
2022-12-07T13:01:09.236Z,7.40
2022-12-07T13:03:37.318Z,7.40
2022-12-07T13:06:42.050Z,7.40
2022-12-07T13:09:29.687Z,7.40
2022-12-07T13:12:03.694Z,7.40
2022-12-07T13:14:54.951Z,7.40
2022-12-07T13:17:34.600Z,7.40
2022-12-07T13:20:12.812Z,7.50
2022-12-07T13:22:48.673Z,7.60
2022-12-07T13:25:21.498Z,7.60
2022-12-07T13:28:18.700Z,7.70
2022-12-07T13:31:19.266Z,7.70
2022-12-07T13:33:48.597Z,7.80
2022-12-07T13:36:36.698Z,7.80
2022-12-07T13:39:34.713Z,7.80
2022-12-07T13:42:35.621Z,7.90
2022-12-07T13:45:44.433Z,7.90
2022-12-07T13:48:28.857Z,7.90
2022-12-07T13:51:00.765Z,8.00
2022-12-07T13:53:31.391Z,8.10
2022-12-07T13:56:02.703Z,8.10
2022-12-07T13:58:33.975Z,8.20
2022-12-07T14:01:01.742Z,8.20
2022-12-07T14:03:35.617Z,8.20
2022-12-07T14:06:16.544Z,8.20
2022-12-07T14:08:45.008Z,8.20
2022-12-07T14:11:20.388Z,8.20
2022-12-07T14:14:02.388Z,8.20
2022-12-07T14:16:36.203Z,8.10
2022-12-07T14:19:06.495Z,8.10
2022-12-07T14:21:35.430Z,7.90
2022-12-07T14:24:21.180Z,7.90
2022-12-07T14:26:50.861Z,7.90
2022-12-07T14:29:32.283Z,7.80
2022-12-07T14:32:29.300Z,7.70
2022-12-07T14:35:14.694Z,7.80
2022-12-07T14:37:44.080Z,7.70
2022-12-07T14:40:15.844Z,7.60
2022-12-07T14:42:44.796Z,7.50
2022-12-07T14:45:16.366Z,7.40
2022-12-07T14:50:38.908Z,7.20
2022-12-07T14:55:48.087Z,7.10
2022-12-07T14:58:17.920Z,7.00
2022-12-07T15:00:46.100Z,6.90
2022-12-07T15:03:14.307Z,6.90
2022-12-07T15:05:42.707Z,6.90
2022-12-07T15:08:12.651Z,6.80
2022-12-07T15:10:41.345Z,6.80
2022-12-07T15:13:28.069Z,6.70
2022-12-07T15:15:56.147Z,6.60
2022-12-07T15:18:24.614Z,6.50
2022-12-07T15:20:52.540Z,6.40
2022-12-07T15:23:20.135Z,6.30
2022-12-07T15:25:49.688Z,6.20
2022-12-07T15:28:17.526Z,6.10
2022-12-07T15:30:46.167Z,6.00
2022-12-07T15:33:14.572Z,5.90
2022-12-07T15:35:44.066Z,5.80
2022-12-07T15:38:12.172Z,5.70
2022-12-07T15:40:39.712Z,5.60
2022-12-07T15:43:29.253Z,5.50
2022-12-07T15:45:56.718Z,5.30
2022-12-07T15:48:28.928Z,5.20
2022-12-07T15:51:08.273Z,5.10
2022-12-07T15:53:36.481Z,5.10
2022-12-07T15:56:08.324Z,5.10
2022-12-07T15:58:36.411Z,5.10
2022-12-07T16:01:14.845Z,5.10
2022-12-07T16:03:42.633Z,5.10
2022-12-07T16:06:10.473Z,5.10
2022-12-07T16:08:38.039Z,4.90
2022-12-07T16:11:08.678Z,4.80
2022-12-07T16:13:36.210Z,4.70
2022-12-07T16:16:06.083Z,4.50
2022-12-07T16:18:33.703Z,4.50
2022-12-07T16:21:01.245Z,4.50
2022-12-07T16:23:28.920Z,4.50
2022-12-07T16:26:04.067Z,4.50
2022-12-07T16:28:31.563Z,4.40
2022-12-07T16:31:04.221Z,4.30
2022-12-07T16:33:31.939Z,4.20
2022-12-07T16:36:00.433Z,4.00
2022-12-07T16:38:28.218Z,4.10
2022-12-07T16:40:56.069Z,4.30
2022-12-07T16:43:23.986Z,4.60
2022-12-07T16:45:52.849Z,4.70
2022-12-07T16:48:20.552Z,4.80
2022-12-07T16:50:51.408Z,4.70
2022-12-07T16:53:19.296Z,4.60
2022-12-07T16:55:47.030Z,4.60
2022-12-07T16:58:16.075Z,4.50
2022-12-07T17:00:45.668Z,4.30
2022-12-07T17:03:19.088Z,4.10
2022-12-07T17:05:48.455Z,4.10
2022-12-07T17:08:16.106Z,3.90
2022-12-07T17:10:45.093Z,3.80
2022-12-07T17:13:31.606Z,3.70
2022-12-07T17:16:04.465Z,3.90
2022-12-07T17:18:34.780Z,3.70
2022-12-07T17:21:07.357Z,3.60
2022-12-07T17:23:35.518Z,3.80
2022-12-07T17:26:21.772Z,3.70
2022-12-07T17:28:49.536Z,3.80
2022-12-07T17:31:19.527Z,3.80
2022-12-07T17:33:47.516Z,3.70
2022-12-07T17:36:19.210Z,3.70
2022-12-07T17:38:48.456Z,3.70
2022-12-07T17:41:39.734Z,3.60
2022-12-07T17:44:10.360Z,3.40
2022-12-07T17:46:38.980Z,3.40
2022-12-07T17:49:07.328Z,3.30
2022-12-07T17:51:53.434Z,3.20
2022-12-07T17:54:21.681Z,3.20
2022-12-07T17:56:49.353Z,3.30
2022-12-07T17:59:17.422Z,3.20
2022-12-07T18:01:45.535Z,3.10
2022-12-07T18:04:13.552Z,3.10
2022-12-07T18:06:41.125Z,3.20
2022-12-07T18:09:08.772Z,3.10
2022-12-07T18:11:36.841Z,3.00
2022-12-07T18:14:05.233Z,3.10
2022-12-07T18:16:37.311Z,3.00
2022-12-07T18:19:06.671Z,3.10
2022-12-07T18:21:34.358Z,3.00
2022-12-07T18:24:04.429Z,3.10
2022-12-07T18:26:35.927Z,3.10
2022-12-07T18:29:05.920Z,3.30
2022-12-07T18:31:34.767Z,3.30
2022-12-07T18:34:12.104Z,3.40
2022-12-07T18:36:42.759Z,3.40
2022-12-07T18:39:10.758Z,3.30
2022-12-07T18:41:39.431Z,3.20
2022-12-07T18:44:07.561Z,3.20
2022-12-07T18:46:35.953Z,3.20
2022-12-07T18:49:04.638Z,3.20
2022-12-07T18:51:32.898Z,3.10
2022-12-07T18:54:01.595Z,3.10
2022-12-07T18:56:31.049Z,3.00
2022-12-07T18:59:21.876Z,2.90
2022-12-07T19:01:51.976Z,3.10
2022-12-07T19:04:19.929Z,3.20
2022-12-07T19:06:49.249Z,3.00
2022-12-07T19:09:17.961Z,3.20
2022-12-07T19:11:51.716Z,3.20
2022-12-07T19:14:28.644Z,3.20
2022-12-07T19:17:02.782Z,3.00
2022-12-07T19:19:42.142Z,3.10
2022-12-07T19:22:11.944Z,3.10
2022-12-07T19:24:39.764Z,3.10
2022-12-07T19:27:08.367Z,3.20
2022-12-07T19:29:36.247Z,3.10
2022-12-07T19:32:05.639Z,3.20
2022-12-07T19:34:33.228Z,3.20
2022-12-07T19:37:00.991Z,3.10
2022-12-07T19:39:29.843Z,3.00
2022-12-07T19:41:58.054Z,3.20
2022-12-07T19:44:27.911Z,3.20
2022-12-07T19:47:04.244Z,3.20
2022-12-07T19:49:34.749Z,3.30
2022-12-07T19:52:07.704Z,3.20
2022-12-07T19:54:36.348Z,3.10
2022-12-07T19:57:07.422Z,3.30
2022-12-07T19:59:35.207Z,3.10
2022-12-07T20:02:02.759Z,3.10
2022-12-07T20:04:32.724Z,3.10
2022-12-07T20:07:01.082Z,3.00
2022-12-07T20:09:28.768Z,3.10
2022-12-07T20:12:14.847Z,2.90
2022-12-07T20:14:42.421Z,2.90
2022-12-07T20:17:10.030Z,2.90
2022-12-07T20:19:38.259Z,3.00
2022-12-07T20:22:05.916Z,3.00
2022-12-07T20:24:35.134Z,3.10
2022-12-07T20:27:04.454Z,3.10
2022-12-07T20:29:32.120Z,3.20
2022-12-07T20:31:59.991Z,3.10
2022-12-07T20:34:27.653Z,3.00
2022-12-07T20:36:55.886Z,3.00
2022-12-07T20:39:24.234Z,3.10
2022-12-07T20:42:10.279Z,3.00
2022-12-07T20:44:37.894Z,2.80
2022-12-07T20:47:06.835Z,3.00
2022-12-07T20:49:35.183Z,2.90
2022-12-07T20:52:03.324Z,2.90
2022-12-07T20:54:30.774Z,2.90
2022-12-07T20:56:58.238Z,2.80
2022-12-07T20:59:25.969Z,2.80
2022-12-07T21:01:53.546Z,2.90
2022-12-07T21:04:21.228Z,2.90
2022-12-07T21:06:48.939Z,2.70
2022-12-07T21:09:16.500Z,2.70
2022-12-07T21:11:44.004Z,2.70
2022-12-07T21:14:11.466Z,2.80
2022-12-07T21:16:39.101Z,2.90
2022-12-07T21:19:06.663Z,2.80
2022-12-07T21:21:34.538Z,2.90
2022-12-07T21:24:03.741Z,2.80
2022-12-07T21:26:36.405Z,2.70
2022-12-07T21:29:06.949Z,2.80
2022-12-07T21:31:35.248Z,2.70
2022-12-07T21:34:06.520Z,2.80
2022-12-07T21:36:34.542Z,2.80
2022-12-07T21:39:02.091Z,2.70
2022-12-07T21:41:35.044Z,2.80
2022-12-07T21:44:05.769Z,2.80
2022-12-07T21:46:34.761Z,2.80
2022-12-07T21:49:06.042Z,2.60
2022-12-07T21:51:33.650Z,2.60
2022-12-07T21:54:03.017Z,2.70
2022-12-07T21:56:36.420Z,2.60
2022-12-07T21:59:10.875Z,2.60
2022-12-07T22:01:40.693Z,2.50
2022-12-07T22:04:11.343Z,2.50
2022-12-07T22:06:39.112Z,2.50
2022-12-07T22:09:07.054Z,2.60
2022-12-07T22:11:35.116Z,2.40
2022-12-07T22:14:22.383Z,2.50
2022-12-07T22:16:51.100Z,2.40
2022-12-07T22:19:18.989Z,2.40
2022-12-07T22:21:46.533Z,2.50
2022-12-07T22:24:14.073Z,2.50
2022-12-07T22:26:43.100Z,2.40
2022-12-07T22:29:11.257Z,2.60
2022-12-07T22:31:41.095Z,2.70
2022-12-07T22:34:17.340Z,2.70
2022-12-07T22:36:45.552Z,2.50
2022-12-07T22:39:13.609Z,2.70
2022-12-07T22:41:41.620Z,2.60
2022-12-07T22:44:09.166Z,2.70
2022-12-07T22:46:37.534Z,2.50
2022-12-07T22:49:05.681Z,2.50
2022-12-07T22:51:35.768Z,2.60
2022-12-07T22:54:05.959Z,2.30
2022-12-07T22:56:35.505Z,2.40
2022-12-07T22:59:04.354Z,2.40
2022-12-07T23:01:31.921Z,2.40
2022-12-07T23:03:59.458Z,2.60
2022-12-07T23:06:31.208Z,2.70
2022-12-07T23:09:01.604Z,2.60
2022-12-07T23:11:49.995Z,2.60
2022-12-07T23:14:33.647Z,2.60
2022-12-07T23:17:01.699Z,2.60
2022-12-07T23:19:29.579Z,2.60
2022-12-07T23:21:57.269Z,2.50
2022-12-07T23:24:25.374Z,2.60
2022-12-07T23:26:52.894Z,2.50
2022-12-07T23:29:20.625Z,2.60
2022-12-07T23:31:49.708Z,2.50
2022-12-07T23:34:17.327Z,2.40
2022-12-07T23:36:45.182Z,2.40
2022-12-07T23:39:12.969Z,2.20
2022-12-07T23:41:40.495Z,2.20
2022-12-07T23:44:08.422Z,2.20
2022-12-07T23:46:36.031Z,2.10
2022-12-07T23:49:05.461Z,2.00
2022-12-07T23:51:33.323Z,2.00
2022-12-07T23:54:03.897Z,2.20
2022-12-07T23:56:33.562Z,2.20
2022-12-07T23:59:02.094Z,2.00
